sensor_id;sensor_type;location;lat;lon;timestamp;temperature;humidity
1337;DHT22;662;48.814;9.318;2022-09-27T00:00:25;12.50;70.80
1337;DHT22;662;48.814;9.318;2022-09-27T00:02:50;12.50;70.70
1337;DHT22;662;48.814;9.318;2022-09-27T00:05:17;12.50;70.90
1337;DHT22;662;48.814;9.318;2022-09-27T00:07:43;12.50;70.70
1337;DHT22;662;48.814;9.318;2022-09-27T00:10:09;12.50;70.80
1337;DHT22;662;48.814;9.318;2022-09-27T00:12:35;12.50;70.90
1337;DHT22;662;48.814;9.318;2022-09-27T00:15:01;12.50;71.70
1337;DHT22;662;48.814;9.318;2022-09-27T00:17:27;12.50;70.80
1337;DHT22;662;48.814;9.318;2022-09-27T00:19:54;12.50;71.50
1337;DHT22;662;48.814;9.318;2022-09-27T00:22:23;12.50;71.00
1337;DHT22;662;48.814;9.318;2022-09-27T00:24:49;12.50;70.90
1337;DHT22;662;48.814;9.318;2022-09-27T00:27:15;12.50;71.00
1337;DHT22;662;48.814;9.318;2022-09-27T00:29:41;12.50;71.10
1337;DHT22;662;48.814;9.318;2022-09-27T00:32:06;12.50;71.20
1337;DHT22;662;48.814;9.318;2022-09-27T00:34:32;12.50;71.70
1337;DHT22;662;48.814;9.318;2022-09-27T00:36:58;12.50;71.90
1337;DHT22;662;48.814;9.318;2022-09-27T00:39:23;12.50;72.10
1337;DHT22;662;48.814;9.318;2022-09-27T00:41:49;12.50;72.20
1337;DHT22;662;48.814;9.318;2022-09-27T00:47:13;12.50;72.50
1337;DHT22;662;48.814;9.318;2022-09-27T00:49:41;12.40;72.70
1337;DHT22;662;48.814;9.318;2022-09-27T00:52:18;12.50;73.00
1337;DHT22;662;48.814;9.318;2022-09-27T00:54:50;12.50;73.30
1337;DHT22;662;48.814;9.318;2022-09-27T00:57:18;12.40;73.30
1337;DHT22;662;48.814;9.318;2022-09-27T01:00:17;12.40;73.00
1337;DHT22;662;48.814;9.318;2022-09-27T01:02:46;12.50;73.30
1337;DHT22;662;48.814;9.318;2022-09-27T01:05:14;12.40;73.30
1337;DHT22;662;48.814;9.318;2022-09-27T01:07:40;12.40;73.40
1337;DHT22;662;48.814;9.318;2022-09-27T01:10:07;12.50;73.10
1337;DHT22;662;48.814;9.318;2022-09-27T01:15:42;12.40;73.20
1337;DHT22;662;48.814;9.318;2022-09-27T01:24:28;12.50;73.40
1337;DHT22;662;48.814;9.318;2022-09-27T01:27:30;12.60;73.30
1337;DHT22;662;48.814;9.318;2022-09-27T01:30:23;12.50;73.30
1337;DHT22;662;48.814;9.318;2022-09-27T01:33:00;12.60;73.50
1337;DHT22;662;48.814;9.318;2022-09-27T01:38:10;12.50;73.70
1337;DHT22;662;48.814;9.318;2022-09-27T01:40:55;12.50;74.00
1337;DHT22;662;48.814;9.318;2022-09-27T01:43:32;12.50;74.30
1337;DHT22;662;48.814;9.318;2022-09-27T01:46:09;12.40;74.50
1337;DHT22;662;48.814;9.318;2022-09-27T01:48:41;12.40;74.70
1337;DHT22;662;48.814;9.318;2022-09-27T01:51:19;12.40;74.70
1337;DHT22;662;48.814;9.318;2022-09-27T01:53:49;12.50;74.70
1337;DHT22;662;48.814;9.318;2022-09-27T01:56:23;12.50;74.50
1337;DHT22;662;48.814;9.318;2022-09-27T01:58:57;12.50;74.60
1337;DHT22;662;48.814;9.318;2022-09-27T02:01:26;12.60;74.50
1337;DHT22;662;48.814;9.318;2022-09-27T02:03:55;12.60;74.10
1337;DHT22;662;48.814;9.318;2022-09-27T02:06:33;12.60;73.80
1337;DHT22;662;48.814;9.318;2022-09-27T02:09:09;12.60;74.00
1337;DHT22;662;48.814;9.318;2022-09-27T02:11:40;12.60;74.00
1337;DHT22;662;48.814;9.318;2022-09-27T02:16:50;12.70;74.10
1337;DHT22;662;48.814;9.318;2022-09-27T02:19:31;12.70;74.00
1337;DHT22;662;48.814;9.318;2022-09-27T02:22:15;12.70;74.30
1337;DHT22;662;48.814;9.318;2022-09-27T02:25:10;12.60;74.80
1337;DHT22;662;48.814;9.318;2022-09-27T02:30:29;12.60;75.60
1337;DHT22;662;48.814;9.318;2022-09-27T02:32:54;12.60;76.00
1337;DHT22;662;48.814;9.318;2022-09-27T02:35:27;12.60;76.40
1337;DHT22;662;48.814;9.318;2022-09-27T02:37:55;12.60;76.70
1337;DHT22;662;48.814;9.318;2022-09-27T02:40:22;12.60;76.90
1337;DHT22;662;48.814;9.318;2022-09-27T02:42:48;12.50;77.10
1337;DHT22;662;48.814;9.318;2022-09-27T02:45:15;12.50;77.60
1337;DHT22;662;48.814;9.318;2022-09-27T02:56:02;12.50;78.30
1337;DHT22;662;48.814;9.318;2022-09-27T02:58:48;12.40;78.10
1337;DHT22;662;48.814;9.318;2022-09-27T03:04:36;12.40;77.80
1337;DHT22;662;48.814;9.318;2022-09-27T03:07:04;12.40;77.80
1337;DHT22;662;48.814;9.318;2022-09-27T03:09:41;12.30;77.50
1337;DHT22;662;48.814;9.318;2022-09-27T03:12:07;12.30;77.50
1337;DHT22;662;48.814;9.318;2022-09-27T03:14:33;12.40;77.60
1337;DHT22;662;48.814;9.318;2022-09-27T03:16:58;12.30;77.10
1337;DHT22;662;48.814;9.318;2022-09-27T03:19:24;12.30;76.70
1337;DHT22;662;48.814;9.318;2022-09-27T03:21:49;12.30;76.60
1337;DHT22;662;48.814;9.318;2022-09-27T03:24:15;12.30;76.00
1337;DHT22;662;48.814;9.318;2022-09-27T03:26:41;12.20;75.20
1337;DHT22;662;48.814;9.318;2022-09-27T03:29:06;12.20;75.00
1337;DHT22;662;48.814;9.318;2022-09-27T03:31:32;12.20;74.90
1337;DHT22;662;48.814;9.318;2022-09-27T03:33:57;12.20;74.70
1337;DHT22;662;48.814;9.318;2022-09-27T03:36:23;12.20;75.20
1337;DHT22;662;48.814;9.318;2022-09-27T03:38:49;12.20;74.50
1337;DHT22;662;48.814;9.318;2022-09-27T03:41:15;12.20;74.10
1337;DHT22;662;48.814;9.318;2022-09-27T03:43:40;12.20;73.40
1337;DHT22;662;48.814;9.318;2022-09-27T03:46:06;12.10;73.10
1337;DHT22;662;48.814;9.318;2022-09-27T03:48:31;12.10;73.30
1337;DHT22;662;48.814;9.318;2022-09-27T03:50:57;12.20;73.30
1337;DHT22;662;48.814;9.318;2022-09-27T03:53:23;12.10;73.00
1337;DHT22;662;48.814;9.318;2022-09-27T03:55:49;12.10;73.00
1337;DHT22;662;48.814;9.318;2022-09-27T03:58:15;12.10;72.70
1337;DHT22;662;48.814;9.318;2022-09-27T04:00:40;12.10;72.70
1337;DHT22;662;48.814;9.318;2022-09-27T04:03:07;12.10;72.50
1337;DHT22;662;48.814;9.318;2022-09-27T04:05:33;12.10;72.40
1337;DHT22;662;48.814;9.318;2022-09-27T04:07:58;12.10;72.30
1337;DHT22;662;48.814;9.318;2022-09-27T04:10:25;12.10;72.50
1337;DHT22;662;48.814;9.318;2022-09-27T04:12:50;12.10;72.50
1337;DHT22;662;48.814;9.318;2022-09-27T04:15:16;12.10;72.60
1337;DHT22;662;48.814;9.318;2022-09-27T04:17:42;12.10;72.80
1337;DHT22;662;48.814;9.318;2022-09-27T04:20:08;12.10;72.90
1337;DHT22;662;48.814;9.318;2022-09-27T04:22:37;12.10;72.70
1337;DHT22;662;48.814;9.318;2022-09-27T04:25:03;12.10;72.60
1337;DHT22;662;48.814;9.318;2022-09-27T04:27:28;12.10;72.60
1337;DHT22;662;48.814;9.318;2022-09-27T04:29:54;12.10;72.80
1337;DHT22;662;48.814;9.318;2022-09-27T04:32:20;12.10;73.00
1337;DHT22;662;48.814;9.318;2022-09-27T04:34:46;12.10;73.20
1337;DHT22;662;48.814;9.318;2022-09-27T04:37:29;12.10;73.30
1337;DHT22;662;48.814;9.318;2022-09-27T04:39:55;12.10;73.40
1337;DHT22;662;48.814;9.318;2022-09-27T04:42:21;12.20;73.70
1337;DHT22;662;48.814;9.318;2022-09-27T04:44:46;12.20;73.60
1337;DHT22;662;48.814;9.318;2022-09-27T04:47:12;12.20;73.70
1337;DHT22;662;48.814;9.318;2022-09-27T04:49:38;12.20;73.70
1337;DHT22;662;48.814;9.318;2022-09-27T04:52:03;12.20;73.50
1337;DHT22;662;48.814;9.318;2022-09-27T04:54:30;12.20;73.30
1337;DHT22;662;48.814;9.318;2022-09-27T04:56:56;12.20;73.20
1337;DHT22;662;48.814;9.318;2022-09-27T04:59:22;12.20;72.90
1337;DHT22;662;48.814;9.318;2022-09-27T05:01:48;12.20;72.90
1337;DHT22;662;48.814;9.318;2022-09-27T05:04:15;12.20;72.70
1337;DHT22;662;48.814;9.318;2022-09-27T05:06:40;12.20;72.50
1337;DHT22;662;48.814;9.318;2022-09-27T05:09:06;12.20;72.40
1337;DHT22;662;48.814;9.318;2022-09-27T05:11:31;12.20;72.50
1337;DHT22;662;48.814;9.318;2022-09-27T05:13:57;12.10;72.70
1337;DHT22;662;48.814;9.318;2022-09-27T05:16:23;12.20;72.90
1337;DHT22;662;48.814;9.318;2022-09-27T05:18:49;12.10;73.10
1337;DHT22;662;48.814;9.318;2022-09-27T05:21:15;12.10;73.30
1337;DHT22;662;48.814;9.318;2022-09-27T05:23:40;12.10;73.30
1337;DHT22;662;48.814;9.318;2022-09-27T05:26:07;12.10;73.60
1337;DHT22;662;48.814;9.318;2022-09-27T05:28:32;12.10;74.00
1337;DHT22;662;48.814;9.318;2022-09-27T05:31:02;12.10;74.00
1337;DHT22;662;48.814;9.318;2022-09-27T05:33:28;12.10;74.00
1337;DHT22;662;48.814;9.318;2022-09-27T05:35:55;12.10;74.20
1337;DHT22;662;48.814;9.318;2022-09-27T05:38:22;12.10;74.40
1337;DHT22;662;48.814;9.318;2022-09-27T05:40:47;12.10;74.70
1337;DHT22;662;48.814;9.318;2022-09-27T05:43:18;12.10;74.90
1337;DHT22;662;48.814;9.318;2022-09-27T05:45:44;12.10;75.30
1337;DHT22;662;48.814;9.318;2022-09-27T05:48:10;12.10;75.50
1337;DHT22;662;48.814;9.318;2022-09-27T05:50:38;12.10;75.80
1337;DHT22;662;48.814;9.318;2022-09-27T05:53:04;12.00;75.90
1337;DHT22;662;48.814;9.318;2022-09-27T05:55:29;12.00;76.20
1337;DHT22;662;48.814;9.318;2022-09-27T05:58:03;12.00;76.50
1337;DHT22;662;48.814;9.318;2022-09-27T06:00:30;12.00;76.70
1337;DHT22;662;48.814;9.318;2022-09-27T06:02:57;12.00;76.80
1337;DHT22;662;48.814;9.318;2022-09-27T06:05:25;12.10;77.00
1337;DHT22;662;48.814;9.318;2022-09-27T06:07:52;12.00;76.90
1337;DHT22;662;48.814;9.318;2022-09-27T06:10:22;12.10;77.00
1337;DHT22;662;48.814;9.318;2022-09-27T06:12:48;12.10;77.00
1337;DHT22;662;48.814;9.318;2022-09-27T06:15:14;12.10;76.90
1337;DHT22;662;48.814;9.318;2022-09-27T06:17:40;12.10;76.80
1337;DHT22;662;48.814;9.318;2022-09-27T06:20:06;12.20;77.20
1337;DHT22;662;48.814;9.318;2022-09-27T06:22:33;12.20;76.50
1337;DHT22;662;48.814;9.318;2022-09-27T06:24:59;12.20;76.10
1337;DHT22;662;48.814;9.318;2022-09-27T06:27:24;12.20;75.90
1337;DHT22;662;48.814;9.318;2022-09-27T06:29:50;12.20;75.70
1337;DHT22;662;48.814;9.318;2022-09-27T06:32:16;12.20;75.70
1337;DHT22;662;48.814;9.318;2022-09-27T06:34:42;12.30;75.90
1337;DHT22;662;48.814;9.318;2022-09-27T06:37:07;12.30;75.70
1337;DHT22;662;48.814;9.318;2022-09-27T06:39:33;12.40;75.70
1337;DHT22;662;48.814;9.318;2022-09-27T06:41:59;12.40;75.20
1337;DHT22;662;48.814;9.318;2022-09-27T06:44:25;12.40;75.00
1337;DHT22;662;48.814;9.318;2022-09-27T06:46:51;12.40;74.80
1337;DHT22;662;48.814;9.318;2022-09-27T06:49:18;12.40;74.60
1337;DHT22;662;48.814;9.318;2022-09-27T06:51:44;12.50;74.70
1337;DHT22;662;48.814;9.318;2022-09-27T06:54:10;12.60;74.60
1337;DHT22;662;48.814;9.318;2022-09-27T06:56:35;12.70;74.30
1337;DHT22;662;48.814;9.318;2022-09-27T06:59:01;12.80;74.00
1337;DHT22;662;48.814;9.318;2022-09-27T07:01:46;12.80;71.30
1337;DHT22;662;48.814;9.318;2022-09-27T07:04:11;12.80;71.40
1337;DHT22;662;48.814;9.318;2022-09-27T07:06:38;12.70;71.30
1337;DHT22;662;48.814;9.318;2022-09-27T07:09:04;12.70;71.40
1337;DHT22;662;48.814;9.318;2022-09-27T07:11:34;12.60;70.70
1337;DHT22;662;48.814;9.318;2022-09-27T07:14:03;12.60;69.40
1337;DHT22;662;48.814;9.318;2022-09-27T07:16:29;12.50;69.20
1337;DHT22;662;48.814;9.318;2022-09-27T07:18:59;12.50;69.50
1337;DHT22;662;48.814;9.318;2022-09-27T07:21:25;12.50;69.30
1337;DHT22;662;48.814;9.318;2022-09-27T07:23:51;12.60;69.20
1337;DHT22;662;48.814;9.318;2022-09-27T07:26:16;12.60;69.40
1337;DHT22;662;48.814;9.318;2022-09-27T07:28:42;12.60;69.30
1337;DHT22;662;48.814;9.318;2022-09-27T07:31:09;12.60;69.20
1337;DHT22;662;48.814;9.318;2022-09-27T07:33:35;12.60;69.60
1337;DHT22;662;48.814;9.318;2022-09-27T07:36:09;12.60;69.50
1337;DHT22;662;48.814;9.318;2022-09-27T07:38:36;12.60;69.60
1337;DHT22;662;48.814;9.318;2022-09-27T07:41:10;12.70;69.90
1337;DHT22;662;48.814;9.318;2022-09-27T07:43:36;12.70;69.60
1337;DHT22;662;48.814;9.318;2022-09-27T07:46:02;12.60;68.70
1337;DHT22;662;48.814;9.318;2022-09-27T07:48:28;12.60;69.00
1337;DHT22;662;48.814;9.318;2022-09-27T07:50:53;12.60;69.70
1337;DHT22;662;48.814;9.318;2022-09-27T07:53:19;12.60;70.10
1337;DHT22;662;48.814;9.318;2022-09-27T07:55:51;12.60;70.20
1337;DHT22;662;48.814;9.318;2022-09-27T07:58:20;12.60;70.50
1337;DHT22;662;48.814;9.318;2022-09-27T08:00:46;12.60;70.30
1337;DHT22;662;48.814;9.318;2022-09-27T08:03:14;12.60;70.10
1337;DHT22;662;48.814;9.318;2022-09-27T08:05:41;12.60;70.40
1337;DHT22;662;48.814;9.318;2022-09-27T08:08:07;12.70;70.30
1337;DHT22;662;48.814;9.318;2022-09-27T08:10:33;12.90;70.70
1337;DHT22;662;48.814;9.318;2022-09-27T08:13:03;13.00;69.90
1337;DHT22;662;48.814;9.318;2022-09-27T08:15:33;13.10;69.20
1337;DHT22;662;48.814;9.318;2022-09-27T08:18:04;13.20;68.30
1337;DHT22;662;48.814;9.318;2022-09-27T08:20:29;13.20;67.90
1337;DHT22;662;48.814;9.318;2022-09-27T08:22:55;13.30;67.60
1337;DHT22;662;48.814;9.318;2022-09-27T08:25:24;13.40;67.70
1337;DHT22;662;48.814;9.318;2022-09-27T08:27:57;13.40;67.50
1337;DHT22;662;48.814;9.318;2022-09-27T08:30:23;13.40;67.40
1337;DHT22;662;48.814;9.318;2022-09-27T08:32:54;13.40;67.40
1337;DHT22;662;48.814;9.318;2022-09-27T08:35:20;13.40;66.40
1337;DHT22;662;48.814;9.318;2022-09-27T08:37:57;13.40;65.10
1337;DHT22;662;48.814;9.318;2022-09-27T08:41:09;13.30;63.40
1337;DHT22;662;48.814;9.318;2022-09-27T08:49:15;13.30;63.30
1337;DHT22;662;48.814;9.318;2022-09-27T08:51:43;13.40;63.60
1337;DHT22;662;48.814;9.318;2022-09-27T08:54:22;13.60;63.70
1337;DHT22;662;48.814;9.318;2022-09-27T08:56:49;13.70;62.90
1337;DHT22;662;48.814;9.318;2022-09-27T08:59:19;13.70;62.60
1337;DHT22;662;48.814;9.318;2022-09-27T09:01:50;13.70;62.30
1337;DHT22;662;48.814;9.318;2022-09-27T09:04:27;13.70;62.00
1337;DHT22;662;48.814;9.318;2022-09-27T09:12:56;13.90;61.60
1337;DHT22;662;48.814;9.318;2022-09-27T09:15:44;14.30;62.10
1337;DHT22;662;48.814;9.318;2022-09-27T09:29:33;14.50;59.20
1337;DHT22;662;48.814;9.318;2022-09-27T09:34:40;14.30;60.00
1337;DHT22;662;48.814;9.318;2022-09-27T09:37:23;14.30;60.90
1337;DHT22;662;48.814;9.318;2022-09-27T09:39:57;14.30;60.00
1337;DHT22;662;48.814;9.318;2022-09-27T09:42:25;15.10;61.00
1337;DHT22;662;48.814;9.318;2022-09-27T09:47:40;17.40;56.30
1337;DHT22;662;48.814;9.318;2022-09-27T09:50:24;17.60;53.90
1337;DHT22;662;48.814;9.318;2022-09-27T09:52:59;18.20;54.30
1337;DHT22;662;48.814;9.318;2022-09-27T09:55:32;18.20;51.80
1337;DHT22;662;48.814;9.318;2022-09-27T09:58:25;18.10;51.00
1337;DHT22;662;48.814;9.318;2022-09-27T10:00:57;18.00;51.80
1337;DHT22;662;48.814;9.318;2022-09-27T10:03:25;17.80;50.50
1337;DHT22;662;48.814;9.318;2022-09-27T10:05:51;17.80;51.10
1337;DHT22;662;48.814;9.318;2022-09-27T10:08:19;18.00;52.00
1337;DHT22;662;48.814;9.318;2022-09-27T10:10:46;18.00;51.90
1337;DHT22;662;48.814;9.318;2022-09-27T10:13:15;17.90;51.20
1337;DHT22;662;48.814;9.318;2022-09-27T10:15:42;17.70;50.30
1337;DHT22;662;48.814;9.318;2022-09-27T10:18:14;17.40;49.50
1337;DHT22;662;48.814;9.318;2022-09-27T10:20:46;17.20;50.10
1337;DHT22;662;48.814;9.318;2022-09-27T10:23:15;17.10;51.00
1337;DHT22;662;48.814;9.318;2022-09-27T10:28:26;17.20;51.40
1337;DHT22;662;48.814;9.318;2022-09-27T10:30:56;17.10;50.40
1337;DHT22;662;48.814;9.318;2022-09-27T10:33:22;17.00;50.70
1337;DHT22;662;48.814;9.318;2022-09-27T10:35:48;16.80;49.60
1337;DHT22;662;48.814;9.318;2022-09-27T10:40:41;16.50;50.40
1337;DHT22;662;48.814;9.318;2022-09-27T10:43:32;16.30;50.50
1337;DHT22;662;48.814;9.318;2022-09-27T10:48:42;15.80;50.50
1337;DHT22;662;48.814;9.318;2022-09-27T10:51:28;15.60;51.10
1337;DHT22;662;48.814;9.318;2022-09-27T10:53:55;15.40;51.40
1337;DHT22;662;48.814;9.318;2022-09-27T10:56:33;15.20;51.70
1337;DHT22;662;48.814;9.318;2022-09-27T10:58:59;15.10;52.80
1337;DHT22;662;48.814;9.318;2022-09-27T11:01:26;15.00;53.60
1337;DHT22;662;48.814;9.318;2022-09-27T11:04:03;14.90;53.20
1337;DHT22;662;48.814;9.318;2022-09-27T11:06:31;14.90;53.70
1337;DHT22;662;48.814;9.318;2022-09-27T11:11:43;15.10;54.40
1337;DHT22;662;48.814;9.318;2022-09-27T11:14:19;15.10;54.10
1337;DHT22;662;48.814;9.318;2022-09-27T11:25:19;15.00;52.90
1337;DHT22;662;48.814;9.318;2022-09-27T11:31:17;15.00;53.30
1337;DHT22;662;48.814;9.318;2022-09-27T11:34:07;14.90;53.00
1337;DHT22;662;48.814;9.318;2022-09-27T11:45:16;14.90;53.40
1337;DHT22;662;48.814;9.318;2022-09-27T11:58:37;14.80;52.00
1337;DHT22;662;48.814;9.318;2022-09-27T12:01:39;14.80;52.10
1337;DHT22;662;48.814;9.318;2022-09-27T12:09:33;14.60;52.60
1337;DHT22;662;48.814;9.318;2022-09-27T12:12:18;14.50;53.60
1337;DHT22;662;48.814;9.318;2022-09-27T12:14:49;14.40;54.70
1337;DHT22;662;48.814;9.318;2022-09-27T12:17:25;14.30;55.50
1337;DHT22;662;48.814;9.318;2022-09-27T12:19:54;14.10;56.00
1337;DHT22;662;48.814;9.318;2022-09-27T12:22:27;14.10;56.80
1337;DHT22;662;48.814;9.318;2022-09-27T12:24:55;14.10;57.40
1337;DHT22;662;48.814;9.318;2022-09-27T12:27:32;14.00;57.90
1337;DHT22;662;48.814;9.318;2022-09-27T12:30:00;14.00;58.40
1337;DHT22;662;48.814;9.318;2022-09-27T12:32:31;13.90;58.60
1337;DHT22;662;48.814;9.318;2022-09-27T12:35:17;13.80;58.90
1337;DHT22;662;48.814;9.318;2022-09-27T12:38:16;13.70;59.30
1337;DHT22;662;48.814;9.318;2022-09-27T12:40:47;13.60;60.00
1337;DHT22;662;48.814;9.318;2022-09-27T12:43:20;13.60;60.50
1337;DHT22;662;48.814;9.318;2022-09-27T12:53:56;13.80;61.80
1337;DHT22;662;48.814;9.318;2022-09-27T13:13:35;14.10;62.50
1337;DHT22;662;48.814;9.318;2022-09-27T13:16:04;14.20;62.40
1337;DHT22;662;48.814;9.318;2022-09-27T13:21:01;14.40;62.70
1337;DHT22;662;48.814;9.318;2022-09-27T13:25:55;14.50;62.60
1337;DHT22;662;48.814;9.318;2022-09-27T13:30:53;14.60;62.60
1337;DHT22;662;48.814;9.318;2022-09-27T13:33:20;14.60;62.30
1337;DHT22;662;48.814;9.318;2022-09-27T13:36:26;14.50;62.10
1337;DHT22;662;48.814;9.318;2022-09-27T13:47:11;14.00;63.30
1337;DHT22;662;48.814;9.318;2022-09-27T13:49:40;13.90;63.80
1337;DHT22;662;48.814;9.318;2022-09-27T13:52:18;13.80;64.20
1337;DHT22;662;48.814;9.318;2022-09-27T13:54:51;13.70;64.60
1337;DHT22;662;48.814;9.318;2022-09-27T14:00:04;13.60;65.40
1337;DHT22;662;48.814;9.318;2022-09-27T14:02:38;13.60;65.60
1337;DHT22;662;48.814;9.318;2022-09-27T14:05:10;13.50;65.50
1337;DHT22;662;48.814;9.318;2022-09-27T14:07:40;13.40;65.70
1337;DHT22;662;48.814;9.318;2022-09-27T14:10:12;13.20;65.80
1337;DHT22;662;48.814;9.318;2022-09-27T14:12:40;13.20;66.40
1337;DHT22;662;48.814;9.318;2022-09-27T14:15:08;13.10;66.90
1337;DHT22;662;48.814;9.318;2022-09-27T14:17:40;13.20;67.30
1337;DHT22;662;48.814;9.318;2022-09-27T14:22:56;13.10;67.70
1337;DHT22;662;48.814;9.318;2022-09-27T14:25:22;13.00;67.80
1337;DHT22;662;48.814;9.318;2022-09-27T14:27:50;13.00;68.20
1337;DHT22;662;48.814;9.318;2022-09-27T14:30:22;13.00;68.70
1337;DHT22;662;48.814;9.318;2022-09-27T14:32:51;13.00;69.00
1337;DHT22;662;48.814;9.318;2022-09-27T14:35:21;12.90;68.90
1337;DHT22;662;48.814;9.318;2022-09-27T14:38:10;12.90;69.00
1337;DHT22;662;48.814;9.318;2022-09-27T14:41:00;12.80;68.80
1337;DHT22;662;48.814;9.318;2022-09-27T14:43:27;12.70;69.10
1337;DHT22;662;48.814;9.318;2022-09-27T14:46:01;12.70;69.40
1337;DHT22;662;48.814;9.318;2022-09-27T14:48:38;12.70;69.80
1337;DHT22;662;48.814;9.318;2022-09-27T14:53:41;12.90;70.40
1337;DHT22;662;48.814;9.318;2022-09-27T14:56:17;13.00;70.50
1337;DHT22;662;48.814;9.318;2022-09-27T14:58:44;13.10;70.40
1337;DHT22;662;48.814;9.318;2022-09-27T15:01:18;13.20;70.50
1337;DHT22;662;48.814;9.318;2022-09-27T15:03:46;13.20;70.30
1337;DHT22;662;48.814;9.318;2022-09-27T15:06:15;13.30;70.40
1337;DHT22;662;48.814;9.318;2022-09-27T15:08:41;13.20;70.20
1337;DHT22;662;48.814;9.318;2022-09-27T15:11:09;13.20;70.20
1337;DHT22;662;48.814;9.318;2022-09-27T15:13:35;13.20;70.10
1337;DHT22;662;48.814;9.318;2022-09-27T15:16:07;13.20;70.00
1337;DHT22;662;48.814;9.318;2022-09-27T15:21:04;13.20;69.80
1337;DHT22;662;48.814;9.318;2022-09-27T15:23:35;13.20;69.90
1337;DHT22;662;48.814;9.318;2022-09-27T15:28:27;13.20;69.80
1337;DHT22;662;48.814;9.318;2022-09-27T15:30:55;13.20;69.80
1337;DHT22;662;48.814;9.318;2022-09-27T15:33:27;13.20;70.00
1337;DHT22;662;48.814;9.318;2022-09-27T15:35:55;13.30;70.10
1337;DHT22;662;48.814;9.318;2022-09-27T15:38:38;13.30;70.10
1337;DHT22;662;48.814;9.318;2022-09-27T15:41:18;13.30;70.20
1337;DHT22;662;48.814;9.318;2022-09-27T15:43:49;13.30;70.00
1337;DHT22;662;48.814;9.318;2022-09-27T15:46:25;13.20;70.00
1337;DHT22;662;48.814;9.318;2022-09-27T15:49:30;13.20;70.10
1337;DHT22;662;48.814;9.318;2022-09-27T15:51:59;13.20;70.20
1337;DHT22;662;48.814;9.318;2022-09-27T15:54:27;13.20;70.20
1337;DHT22;662;48.814;9.318;2022-09-27T15:56:55;13.20;70.40
1337;DHT22;662;48.814;9.318;2022-09-27T15:59:29;13.20;70.40
1337;DHT22;662;48.814;9.318;2022-09-27T16:01:56;13.20;70.50
1337;DHT22;662;48.814;9.318;2022-09-27T16:04:23;13.20;70.50
1337;DHT22;662;48.814;9.318;2022-09-27T16:06:51;13.10;70.60
1337;DHT22;662;48.814;9.318;2022-09-27T16:09:18;13.10;70.90
1337;DHT22;662;48.814;9.318;2022-09-27T16:11:48;13.20;71.10
1337;DHT22;662;48.814;9.318;2022-09-27T16:14:14;13.20;71.30
1337;DHT22;662;48.814;9.318;2022-09-27T16:16:50;13.20;71.40
1337;DHT22;662;48.814;9.318;2022-09-27T16:19:16;13.20;71.10
1337;DHT22;662;48.814;9.318;2022-09-27T16:21:42;13.30;70.90
1337;DHT22;662;48.814;9.318;2022-09-27T16:24:11;13.30;70.80
1337;DHT22;662;48.814;9.318;2022-09-27T16:26:37;13.20;70.80
1337;DHT22;662;48.814;9.318;2022-09-27T16:29:04;13.30;71.00
1337;DHT22;662;48.814;9.318;2022-09-27T16:31:33;13.20;68.90
1337;DHT22;662;48.814;9.318;2022-09-27T16:34:00;13.10;67.50
1337;DHT22;662;48.814;9.318;2022-09-27T16:36:26;13.00;66.40
1337;DHT22;662;48.814;9.318;2022-09-27T16:38:52;12.90;66.40
1337;DHT22;662;48.814;9.318;2022-09-27T16:41:20;12.90;65.60
1337;DHT22;662;48.814;9.318;2022-09-27T16:43:46;12.80;65.50
1337;DHT22;662;48.814;9.318;2022-09-27T16:46:13;12.70;64.90
1337;DHT22;662;48.814;9.318;2022-09-27T16:48:43;12.70;64.90
1337;DHT22;662;48.814;9.318;2022-09-27T16:51:20;12.60;64.00
1337;DHT22;662;48.814;9.318;2022-09-27T16:54:05;12.60;64.10
1337;DHT22;662;48.814;9.318;2022-09-27T16:56:33;12.60;64.60
1337;DHT22;662;48.814;9.318;2022-09-27T16:58:59;12.60;64.90
1337;DHT22;662;48.814;9.318;2022-09-27T17:01:28;12.50;65.00
1337;DHT22;662;48.814;9.318;2022-09-27T17:03:53;12.50;65.50
1337;DHT22;662;48.814;9.318;2022-09-27T17:06:19;12.50;65.70
1337;DHT22;662;48.814;9.318;2022-09-27T17:08:45;12.50;65.70
1337;DHT22;662;48.814;9.318;2022-09-27T17:11:15;12.50;64.40
1337;DHT22;662;48.814;9.318;2022-09-27T17:13:44;12.50;64.30
1337;DHT22;662;48.814;9.318;2022-09-27T17:16:11;12.40;64.30
1337;DHT22;662;48.814;9.318;2022-09-27T17:18:38;12.40;64.40
1337;DHT22;662;48.814;9.318;2022-09-27T17:21:05;12.40;64.40
1337;DHT22;662;48.814;9.318;2022-09-27T17:23:32;12.30;64.50
1337;DHT22;662;48.814;9.318;2022-09-27T17:26:13;12.30;64.10
1337;DHT22;662;48.814;9.318;2022-09-27T17:28:39;12.30;64.40
1337;DHT22;662;48.814;9.318;2022-09-27T17:31:08;12.20;62.70
1337;DHT22;662;48.814;9.318;2022-09-27T17:33:43;12.20;62.90
1337;DHT22;662;48.814;9.318;2022-09-27T17:36:17;12.20;63.50
1337;DHT22;662;48.814;9.318;2022-09-27T17:38:44;12.20;63.50
1337;DHT22;662;48.814;9.318;2022-09-27T17:41:12;12.20;63.70
1337;DHT22;662;48.814;9.318;2022-09-27T17:43:39;12.20;64.20
1337;DHT22;662;48.814;9.318;2022-09-27T17:46:15;12.20;64.40
1337;DHT22;662;48.814;9.318;2022-09-27T17:48:41;12.20;64.70
1337;DHT22;662;48.814;9.318;2022-09-27T17:51:26;12.20;64.70
1337;DHT22;662;48.814;9.318;2022-09-27T17:53:52;12.20;64.80
1337;DHT22;662;48.814;9.318;2022-09-27T17:56:18;12.20;65.10
1337;DHT22;662;48.814;9.318;2022-09-27T18:01:13;12.20;64.70
1337;DHT22;662;48.814;9.318;2022-09-27T18:03:38;12.20;63.70
1337;DHT22;662;48.814;9.318;2022-09-27T18:06:09;12.20;63.30
1337;DHT22;662;48.814;9.318;2022-09-27T18:08:34;12.20;63.50
1337;DHT22;662;48.814;9.318;2022-09-27T18:11:08;12.10;63.50
1337;DHT22;662;48.814;9.318;2022-09-27T18:13:34;12.20;63.80
1337;DHT22;662;48.814;9.318;2022-09-27T18:16:11;12.10;63.90
1337;DHT22;662;48.814;9.318;2022-09-27T18:18:38;12.10;63.80
1337;DHT22;662;48.814;9.318;2022-09-27T18:21:06;12.10;63.90
1337;DHT22;662;48.814;9.318;2022-09-27T18:23:34;12.10;63.80
1337;DHT22;662;48.814;9.318;2022-09-27T18:25:59;12.10;63.90
1337;DHT22;662;48.814;9.318;2022-09-27T18:28:28;12.10;63.90
1337;DHT22;662;48.814;9.318;2022-09-27T18:30:54;12.10;63.90
1337;DHT22;662;48.814;9.318;2022-09-27T18:33:20;12.00;63.70
1337;DHT22;662;48.814;9.318;2022-09-27T18:35:46;12.00;63.10
1337;DHT22;662;48.814;9.318;2022-09-27T18:38:12;12.00;63.10
1337;DHT22;662;48.814;9.318;2022-09-27T18:40:38;12.00;63.50
1337;DHT22;662;48.814;9.318;2022-09-27T18:43:03;12.00;63.50
1337;DHT22;662;48.814;9.318;2022-09-27T18:45:29;12.00;63.30
1337;DHT22;662;48.814;9.318;2022-09-27T18:47:55;12.00;63.40
1337;DHT22;662;48.814;9.318;2022-09-27T18:50:20;12.00;63.00
1337;DHT22;662;48.814;9.318;2022-09-27T18:52:46;11.90;62.80
1337;DHT22;662;48.814;9.318;2022-09-27T18:55:12;11.90;63.00
1337;DHT22;662;48.814;9.318;2022-09-27T18:57:37;11.90;63.10
1337;DHT22;662;48.814;9.318;2022-09-27T19:00:04;11.90;63.20
1337;DHT22;662;48.814;9.318;2022-09-27T19:02:29;11.80;63.30
1337;DHT22;662;48.814;9.318;2022-09-27T19:04:57;11.80;64.20
1337;DHT22;662;48.814;9.318;2022-09-27T19:07:23;11.80;63.60
1337;DHT22;662;48.814;9.318;2022-09-27T19:09:48;11.80;63.80
1337;DHT22;662;48.814;9.318;2022-09-27T19:12:14;11.80;63.70
1337;DHT22;662;48.814;9.318;2022-09-27T19:14:39;11.80;63.60
1337;DHT22;662;48.814;9.318;2022-09-27T19:17:05;11.70;63.40